createdAt,value
2023-05-22T00:01:14.284Z,101362.59
2023-05-22T00:03:41.185Z,101334.91
2023-05-22T00:06:10.491Z,101349.19
2023-05-22T00:09:00.124Z,101345.78
2023-05-22T00:11:36.380Z,101352.16
2023-05-22T00:14:09.993Z,101348.66
2023-05-22T00:16:37.106Z,101339.94
2023-05-22T00:19:11.013Z,101323.88
2023-05-22T00:21:44.945Z,101348.19
2023-05-22T00:24:11.913Z,101332.38
2023-05-22T00:26:47.991Z,101348.72
2023-05-22T00:29:21.531Z,101338.94
2023-05-22T00:31:55.080Z,101339.41
2023-05-22T00:34:24.644Z,101353.72
2023-05-22T00:36:57.972Z,101361.97
2023-05-22T00:39:24.968Z,101351.50
2023-05-22T00:41:59.042Z,101349.63
2023-05-22T00:44:26.029Z,101332.56
2023-05-22T00:47:00.074Z,101342.84
2023-05-22T00:49:26.996Z,101350.94
2023-05-22T00:52:01.037Z,101348.88
2023-05-22T00:54:35.990Z,101362.50
2023-05-22T00:57:03.931Z,101349.78
2023-05-22T00:59:37.977Z,101345.09
2023-05-22T01:02:12.223Z,101354.25
2023-05-22T01:04:46.066Z,101348.66
2023-05-22T01:07:20.012Z,101345.41
2023-05-22T01:09:46.929Z,101334.53
2023-05-22T01:12:38.018Z,101354.56
2023-05-22T01:15:37.925Z,101340.31
2023-05-22T01:18:26.032Z,101322.09
2023-05-22T01:21:37.046Z,101343.38
2023-05-22T01:24:49.049Z,101309.91
2023-05-22T01:27:18.511Z,101330.94
2023-05-22T01:30:08.123Z,101312.13
2023-05-22T01:32:51.099Z,101311.84
2023-05-22T01:35:19.658Z,101310.28
2023-05-22T01:37:54.039Z,101301.06
2023-05-22T01:40:28.134Z,101307.28
2023-05-22T01:43:02.086Z,101298.00
2023-05-22T01:45:32.010Z,101297.16
2023-05-22T01:48:06.086Z,101289.97
2023-05-22T01:50:33.468Z,101294.91
2023-05-22T01:53:25.099Z,101312.59
2023-05-22T01:56:10.867Z,101306.38
2023-05-22T01:59:08.046Z,101303.81
2023-05-22T02:01:38.753Z,101300.28
2023-05-22T02:04:13.067Z,101310.22
2023-05-22T02:06:41.753Z,101315.63
2023-05-22T02:09:16.061Z,101309.38
2023-05-22T02:11:50.076Z,101308.72
2023-05-22T02:14:25.053Z,101321.06
2023-05-22T02:16:54.458Z,101319.22
2023-05-22T02:19:28.273Z,101315.13
2023-05-22T02:22:02.135Z,101298.78
2023-05-22T02:24:30.608Z,101320.50
2023-05-22T02:27:05.041Z,101288.03
2023-05-22T02:29:38.357Z,101324.88
2023-05-22T02:32:18.194Z,101282.09
2023-05-22T02:34:45.328Z,101298.47
2023-05-22T02:37:20.137Z,101299.88
2023-05-22T02:39:46.993Z,101299.03
2023-05-22T02:42:20.109Z,101304.56
2023-05-22T02:44:46.959Z,101294.81
2023-05-22T02:47:20.149Z,101295.78
2023-05-22T02:49:54.118Z,101281.25
2023-05-22T02:52:28.123Z,101279.56
2023-05-22T02:55:02.085Z,101288.19
2023-05-22T02:57:28.988Z,101279.41
2023-05-22T03:00:03.094Z,101276.13
2023-05-22T03:02:32.723Z,101275.28
2023-05-22T03:05:06.160Z,101270.75
2023-05-22T03:07:33.235Z,101262.41
2023-05-22T03:10:07.426Z,101254.31
2023-05-22T03:12:34.376Z,101237.06
2023-05-22T03:15:08.125Z,101260.25
2023-05-22T03:17:35.100Z,101254.03
2023-05-22T03:20:08.150Z,101256.03
2023-05-22T03:22:41.045Z,101249.69
2023-05-22T03:25:16.312Z,101253.50
2023-05-22T03:27:43.352Z,101250.91
2023-05-22T03:30:26.133Z,101239.47
2023-05-22T03:32:53.786Z,101237.91
2023-05-22T03:35:28.425Z,101237.06
2023-05-22T03:38:02.013Z,101235.91
2023-05-22T03:40:35.126Z,101225.31
2023-05-22T03:43:08.132Z,101222.63
2023-05-22T03:45:35.191Z,101212.66
2023-05-22T03:48:08.197Z,101205.22
2023-05-22T03:50:35.070Z,101200.69
2023-05-22T03:53:08.191Z,101215.53
2023-05-22T03:55:35.142Z,101209.75
2023-05-22T03:58:08.126Z,101209.59
2023-05-22T04:00:43.163Z,101197.75
2023-05-22T04:03:19.328Z,101190.69
2023-05-22T04:05:47.443Z,101215.84
2023-05-22T04:08:21.153Z,101203.50
2023-05-22T04:10:55.098Z,101214.28
2023-05-22T04:13:28.194Z,101186.59
2023-05-22T04:15:57.120Z,101201.69
2023-05-22T04:18:24.291Z,101205.59
2023-05-22T04:20:59.348Z,101193.44
2023-05-22T04:23:26.378Z,101203.63
2023-05-22T04:26:00.217Z,101192.91
2023-05-22T04:28:27.344Z,101199.53
2023-05-22T04:31:07.226Z,101192.09
2023-05-22T04:33:34.880Z,101195.16
2023-05-22T04:36:11.527Z,101190.06
2023-05-22T04:38:39.400Z,101215.50
2023-05-22T04:41:15.428Z,101218.03
2023-05-22T04:43:49.191Z,101222.28
2023-05-22T04:46:16.534Z,101206.13
2023-05-22T04:48:50.271Z,101202.72
2023-05-22T04:51:17.407Z,101211.19
2023-05-22T04:53:51.167Z,101205.50
2023-05-22T04:56:35.336Z,101206.88
2023-05-22T04:59:11.158Z,101208.13
2023-05-22T05:01:45.241Z,101220.28
2023-05-22T05:04:19.201Z,101207.25
2023-05-22T05:06:46.328Z,101215.97
2023-05-22T05:09:20.234Z,101228.97
2023-05-22T05:11:47.294Z,101212.09
2023-05-22T05:14:21.181Z,101233.09
2023-05-22T05:16:48.320Z,101232.28
2023-05-22T05:19:22.190Z,101242.78
2023-05-22T05:21:52.667Z,101242.69
2023-05-22T05:24:26.171Z,101237.38
2023-05-22T05:27:00.244Z,101238.41
2023-05-22T05:29:40.482Z,101245.72
2023-05-22T05:32:14.212Z,101241.03
2023-05-22T05:34:50.201Z,101252.75
2023-05-22T05:37:24.225Z,101253.44
2023-05-22T05:39:51.443Z,101253.44
2023-05-22T05:42:25.436Z,101251.44
2023-05-22T05:44:52.469Z,101253.28
2023-05-22T05:47:26.182Z,101248.72
2023-05-22T05:49:53.159Z,101248.72
2023-05-22T05:52:26.221Z,101263.28
2023-05-22T05:54:53.300Z,101261.72
2023-05-22T05:57:27.392Z,101270.88
2023-05-22T05:59:54.312Z,101270.41
2023-05-22T06:02:28.297Z,101262.31
2023-05-22T06:05:03.307Z,101260.31
2023-05-22T06:07:30.459Z,101256.59
2023-05-22T06:10:04.221Z,101269.44
2023-05-22T06:12:31.728Z,101273.66
2023-05-22T06:15:05.297Z,101270.59
2023-05-22T06:17:32.510Z,101270.44
2023-05-22T06:20:06.291Z,101276.75
2023-05-22T06:22:33.240Z,101260.34
2023-05-22T06:25:07.332Z,101276.88
2023-05-22T06:27:34.397Z,101280.09
2023-05-22T06:30:16.824Z,101288.59
2023-05-22T06:32:53.804Z,101284.72
2023-05-22T06:35:27.366Z,101295.72
2023-05-22T06:37:54.985Z,101275.09
2023-05-22T06:40:29.388Z,101295.91
2023-05-22T06:43:04.191Z,101290.53
2023-05-22T06:45:38.325Z,101270.25
2023-05-22T06:48:05.658Z,101293.59
2023-05-22T06:50:32.588Z,101301.94
2023-05-22T06:53:06.340Z,101298.63
2023-05-22T06:55:33.243Z,101300.66
2023-05-22T06:58:07.187Z,101287.16
2023-05-22T07:00:34.360Z,101312.03
2023-05-22T07:03:08.292Z,101282.81
2023-05-22T07:05:35.330Z,101293.63
2023-05-22T07:08:09.263Z,101318.50
2023-05-22T07:10:36.314Z,101317.50
2023-05-22T07:13:10.249Z,101315.50
2023-05-22T07:15:45.119Z,101323.94
2023-05-22T07:18:20.309Z,101319.09
2023-05-22T07:20:47.481Z,101314.72
2023-05-22T07:23:21.396Z,101315.22
2023-05-22T07:25:55.353Z,101315.53
2023-05-22T07:28:29.357Z,101323.13
2023-05-22T07:31:03.302Z,101318.72
2023-05-22T07:33:30.190Z,101321.25
2023-05-22T07:36:04.256Z,101327.00
2023-05-22T07:38:31.184Z,101332.06
2023-05-22T07:41:04.375Z,101326.28
2023-05-22T07:43:31.728Z,101324.28
2023-05-22T07:46:05.210Z,101328.00
2023-05-22T07:48:32.300Z,101311.75
2023-05-22T07:51:05.299Z,101318.19
2023-05-22T07:53:32.403Z,101320.69
2023-05-22T07:56:06.225Z,101336.56
2023-05-22T07:58:35.160Z,101324.88
2023-05-22T08:01:09.723Z,101315.41
2023-05-22T08:03:43.599Z,101314.66
2023-05-22T08:06:10.822Z,101317.13
2023-05-22T08:08:44.336Z,101335.31
2023-05-22T08:11:11.452Z,101325.81
2023-05-22T08:13:45.250Z,101337.16
2023-05-22T08:16:12.185Z,101332.25
2023-05-22T08:18:45.380Z,101336.91
2023-05-22T08:21:12.347Z,101326.41
2023-05-22T08:23:45.188Z,101309.13
2023-05-22T08:26:12.705Z,101323.41
2023-05-22T08:28:44.287Z,101300.22
2023-05-22T08:31:18.353Z,101317.78
2023-05-22T08:33:45.453Z,101316.41
2023-05-22T08:36:20.832Z,101315.56
2023-05-22T08:38:47.678Z,101303.75
2023-05-22T08:41:22.265Z,101294.38
2023-05-22T08:43:49.318Z,101297.13
2023-05-22T08:46:24.382Z,101313.44
2023-05-22T08:48:52.434Z,101312.50
2023-05-22T08:51:28.311Z,101302.19
2023-05-22T08:54:03.440Z,101310.63
2023-05-22T08:56:32.090Z,101291.72
2023-05-22T08:59:08.277Z,101303.78
2023-05-22T09:01:42.673Z,101303.13
2023-05-22T09:04:16.285Z,101307.03
2023-05-22T09:06:49.537Z,101286.00
2023-05-22T09:09:23.486Z,101303.84
2023-05-22T09:11:57.328Z,101314.22
2023-05-22T09:14:27.461Z,101293.47
2023-05-22T09:17:01.355Z,101292.28
2023-05-22T09:19:34.505Z,101302.56
2023-05-22T09:22:06.626Z,101295.41
2023-05-22T09:24:50.471Z,101300.47
2023-05-22T09:27:17.574Z,101279.84
2023-05-22T09:29:59.279Z,101282.97
2023-05-22T09:32:36.687Z,101288.69
2023-05-22T09:35:12.513Z,101289.50
2023-05-22T09:37:40.437Z,101296.34
2023-05-22T09:40:23.412Z,101295.28
2023-05-22T09:42:50.380Z,101286.81
2023-05-22T09:45:28.771Z,101275.84
2023-05-22T09:47:56.114Z,101286.16
2023-05-22T09:50:23.500Z,101266.28
2023-05-22T09:52:58.361Z,101286.09
2023-05-22T09:55:27.516Z,101304.22
2023-05-22T09:58:02.545Z,101294.00
2023-05-22T10:00:30.408Z,101286.75
2023-05-22T10:03:19.363Z,101290.09
2023-05-22T10:05:54.135Z,101297.50
2023-05-22T10:08:34.433Z,101263.91
2023-05-22T10:11:03.853Z,101287.41
2023-05-22T10:13:37.522Z,101265.78
2023-05-22T10:16:08.158Z,101280.28
2023-05-22T10:18:43.355Z,101273.97
2023-05-22T10:21:10.498Z,101279.00
2023-05-22T10:23:44.525Z,101280.69
2023-05-22T10:26:11.742Z,101285.09
2023-05-22T10:28:53.307Z,101278.19
2023-05-22T10:31:48.582Z,101280.22
2023-05-22T10:34:35.533Z,101273.28
2023-05-22T10:37:17.003Z,101287.50
2023-05-22T10:39:58.455Z,101279.06
2023-05-22T10:42:30.105Z,101249.75
2023-05-22T10:44:57.102Z,101248.09
2023-05-22T10:47:30.524Z,101268.66
2023-05-22T10:50:11.827Z,101262.38
2023-05-22T10:52:47.355Z,101243.84
2023-05-22T10:55:14.872Z,101269.66
2023-05-22T10:57:49.448Z,101245.13
2023-05-22T11:00:18.952Z,101272.31
2023-05-22T11:02:52.484Z,101267.03
2023-05-22T11:05:20.385Z,101270.19
2023-05-22T11:07:54.419Z,101272.66
2023-05-22T11:10:27.919Z,101266.56
2023-05-22T11:13:19.337Z,101251.84
2023-05-22T11:15:46.891Z,101258.84
2023-05-22T11:18:23.438Z,101258.38
2023-05-22T11:20:50.539Z,101255.22
2023-05-22T11:23:26.347Z,101248.88
2023-05-22T11:25:53.531Z,101253.28
2023-05-22T11:28:27.461Z,101241.25
2023-05-22T11:31:01.668Z,101248.72
2023-05-22T11:33:35.777Z,101243.66
2023-05-22T11:36:03.713Z,101264.78
2023-05-22T11:38:37.536Z,101278.75
2023-05-22T11:41:04.585Z,101268.81
2023-05-22T11:43:41.541Z,101271.94
2023-05-22T11:46:10.748Z,101270.91
2023-05-22T11:48:48.451Z,101267.91
2023-05-22T11:51:26.342Z,101262.84
2023-05-22T11:53:53.467Z,101255.47
2023-05-22T11:56:30.580Z,101261.50
2023-05-22T11:58:57.520Z,101260.69
2023-05-22T12:01:31.523Z,101252.47
2023-05-22T12:03:58.535Z,101247.22
2023-05-22T12:06:32.489Z,101253.38
2023-05-22T12:09:01.182Z,101254.97
2023-05-22T12:11:34.441Z,101243.38
2023-05-22T12:14:02.218Z,101239.97
2023-05-22T12:16:43.461Z,101247.41
2023-05-22T12:19:12.288Z,101245.56
2023-05-22T12:21:46.477Z,101234.78
2023-05-22T12:24:23.355Z,101243.16
2023-05-22T12:26:54.108Z,101250.72
2023-05-22T12:29:30.398Z,101249.94
2023-05-22T12:32:17.800Z,101249.63
2023-05-22T12:34:55.402Z,101246.63
2023-05-22T12:37:28.648Z,101245.44
2023-05-22T12:40:03.609Z,101252.34
2023-05-22T12:42:30.591Z,101249.78
2023-05-22T12:45:07.688Z,101244.16
2023-05-22T12:47:35.195Z,101248.25
2023-05-22T12:50:08.543Z,101247.31
2023-05-22T12:52:42.589Z,101240.25
2023-05-22T12:55:11.432Z,101230.34
2023-05-22T12:57:44.464Z,101234.22
2023-05-22T13:00:18.537Z,101235.88
2023-05-22T13:02:46.484Z,101235.66
2023-05-22T13:05:20.713Z,101231.47
2023-05-22T13:07:48.042Z,101236.63
2023-05-22T13:10:21.936Z,101230.84
2023-05-22T13:12:58.523Z,101234.50
2023-05-22T13:15:32.727Z,101236.09
2023-05-22T13:17:59.913Z,101220.03
2023-05-22T13:20:33.564Z,101221.75
2023-05-22T13:23:00.521Z,101217.03
2023-05-22T13:25:34.452Z,101214.69
2023-05-22T13:28:01.766Z,101197.22
2023-05-22T13:30:35.490Z,101223.44
2023-05-22T13:33:09.651Z,101220.28
2023-05-22T13:35:37.051Z,101205.03
2023-05-22T13:38:10.457Z,101203.91
2023-05-22T13:40:37.524Z,101218.53
2023-05-22T13:43:11.531Z,101217.22
2023-05-22T13:45:38.592Z,101217.13
2023-05-22T13:48:13.196Z,101219.19
2023-05-22T13:50:41.437Z,101233.44
2023-05-22T13:53:14.603Z,101229.16
2023-05-22T13:55:42.066Z,101221.66
2023-05-22T13:58:09.266Z,101207.28
2023-05-22T14:00:42.666Z,101205.53
2023-05-22T14:03:11.771Z,101207.75
2023-05-22T14:05:45.490Z,101216.56
2023-05-22T14:08:12.917Z,101212.28
2023-05-22T14:10:46.964Z,101186.91
2023-05-22T14:13:13.945Z,101207.66
2023-05-22T14:15:49.505Z,101183.63
2023-05-22T14:18:19.253Z,101200.09
2023-05-22T14:20:53.678Z,101190.91
2023-05-22T14:23:20.776Z,101190.78
2023-05-22T14:25:47.858Z,101182.88
2023-05-22T14:28:21.641Z,101175.41
2023-05-22T14:30:54.874Z,101193.34
2023-05-22T14:33:28.800Z,101201.75
2023-05-22T14:36:02.424Z,101187.13
2023-05-22T14:38:40.652Z,101186.97
2023-05-22T14:41:07.653Z,101194.75
2023-05-22T14:43:43.721Z,101205.75
2023-05-22T14:46:11.655Z,101201.56
2023-05-22T14:48:45.589Z,101197.22
2023-05-22T14:51:19.529Z,101204.38
2023-05-22T14:53:53.850Z,101205.91
2023-05-22T14:56:22.159Z,101210.75
2023-05-22T14:58:55.660Z,101209.50
2023-05-22T15:01:29.576Z,101201.91
2023-05-22T15:03:56.825Z,101210.06
2023-05-22T15:06:30.620Z,101212.94
2023-05-22T15:08:57.660Z,101204.47
2023-05-22T15:11:31.764Z,101207.31
2023-05-22T15:13:58.919Z,101211.69
2023-05-22T15:16:32.678Z,101227.06
2023-05-22T15:19:06.702Z,101217.28
2023-05-22T15:21:40.797Z,101227.75
2023-05-22T15:24:15.208Z,101236.84
2023-05-22T15:26:48.548Z,101238.81
2023-05-22T15:29:15.688Z,101247.56
2023-05-22T15:31:55.580Z,101247.81
2023-05-22T15:34:29.676Z,101247.47
2023-05-22T15:36:56.843Z,101250.53
2023-05-22T15:39:30.708Z,101248.78
2023-05-22T15:42:05.940Z,101247.22
2023-05-22T15:44:40.887Z,101245.91
2023-05-22T15:47:07.978Z,101259.25
2023-05-22T15:49:43.070Z,101255.63
2023-05-22T15:52:10.107Z,101252.59
2023-05-22T15:54:43.719Z,101260.28
2023-05-22T15:57:17.778Z,101256.19
2023-05-22T15:59:53.584Z,101256.94
2023-05-22T16:02:26.900Z,101261.44
2023-05-22T16:04:53.974Z,101245.25
2023-05-22T16:07:27.726Z,101241.03
2023-05-22T16:10:01.972Z,101258.94
2023-05-22T16:12:29.031Z,101246.09
2023-05-22T16:15:04.453Z,101253.59
2023-05-22T16:17:47.812Z,101280.72
2023-05-22T16:20:22.730Z,101278.78
2023-05-22T16:22:49.853Z,101272.97
2023-05-22T16:25:26.978Z,101285.22
2023-05-22T16:28:00.722Z,101273.78
2023-05-22T16:30:34.715Z,101276.34
2023-05-22T16:33:09.148Z,101281.13
2023-05-22T16:35:42.737Z,101271.53
2023-05-22T16:38:12.463Z,101287.41
2023-05-22T16:40:45.680Z,101283.84
2023-05-22T16:43:20.802Z,101282.59
2023-05-22T16:45:54.192Z,101285.00
2023-05-22T16:48:27.833Z,101298.41
2023-05-22T16:50:54.734Z,101288.94
2023-05-22T16:53:28.891Z,101289.84
2023-05-22T16:55:56.022Z,101283.69
2023-05-22T16:58:29.654Z,101312.66
2023-05-22T17:00:57.212Z,101316.59
2023-05-22T17:03:31.934Z,101306.81
2023-05-22T17:06:05.707Z,101306.34
2023-05-22T17:08:32.768Z,101296.00
2023-05-22T17:11:06.670Z,101309.91
2023-05-22T17:13:33.724Z,101310.91
2023-05-22T17:16:10.728Z,101311.31
2023-05-22T17:18:38.305Z,101314.00
2023-05-22T17:21:11.736Z,101319.31
2023-05-22T17:23:39.175Z,101305.72
2023-05-22T17:26:12.775Z,101313.66
2023-05-22T17:28:39.786Z,101322.69
2023-05-22T17:31:26.728Z,101317.81
2023-05-22T17:33:53.745Z,101301.81
2023-05-22T17:36:27.714Z,101322.59
2023-05-22T17:38:54.680Z,101320.94
2023-05-22T17:41:29.744Z,101316.59
2023-05-22T17:43:57.487Z,101326.06
2023-05-22T17:46:30.758Z,101320.88
2023-05-22T17:48:58.102Z,101317.28
2023-05-22T17:51:25.052Z,101323.94
2023-05-22T17:54:02.802Z,101314.03
2023-05-22T17:56:29.855Z,101330.97
2023-05-22T17:59:03.753Z,101336.13
2023-05-22T18:01:38.792Z,101329.34
2023-05-22T18:04:06.538Z,101343.28
2023-05-22T18:06:41.015Z,101345.94
2023-05-22T18:09:08.408Z,101345.34
2023-05-22T18:11:41.940Z,101348.28
2023-05-22T18:14:15.668Z,101355.94
2023-05-22T18:16:55.654Z,101350.44
2023-05-22T18:19:29.116Z,101358.59
2023-05-22T18:22:02.782Z,101372.53
2023-05-22T18:24:29.708Z,101373.28
2023-05-22T18:27:03.826Z,101376.16
2023-05-22T18:29:30.973Z,101381.13
2023-05-22T18:32:05.371Z,101368.41
2023-05-22T18:34:39.035Z,101380.44
2023-05-22T18:37:12.721Z,101390.06
2023-05-22T18:39:39.586Z,101395.69
2023-05-22T18:42:13.815Z,101395.66
2023-05-22T18:44:41.505Z,101395.69
2023-05-22T18:47:14.837Z,101395.84
2023-05-22T18:49:42.118Z,101400.56
2023-05-22T18:52:15.732Z,101406.81
2023-05-22T18:54:42.796Z,101402.19
2023-05-22T18:57:12.870Z,101394.56
2023-05-22T18:59:47.713Z,101406.03
2023-05-22T19:02:22.403Z,101402.28
2023-05-22T19:04:58.378Z,101399.88
2023-05-22T19:07:40.116Z,101406.47
2023-05-22T19:10:08.442Z,101402.34
2023-05-22T19:12:35.456Z,101406.03
2023-05-22T19:15:09.886Z,101414.94
2023-05-22T19:17:37.137Z,101407.06
2023-05-22T19:20:15.103Z,101413.66
2023-05-22T19:22:42.250Z,101410.16
2023-05-22T19:25:15.882Z,101430.75
2023-05-22T19:27:42.934Z,101429.84
2023-05-22T19:30:16.762Z,101439.72
2023-05-22T19:32:56.096Z,101432.03
2023-05-22T19:35:35.885Z,101440.78
2023-05-22T19:38:03.166Z,101434.59
2023-05-22T19:40:36.778Z,101447.72
2023-05-22T19:43:04.165Z,101449.34
2023-05-22T19:45:37.811Z,101448.56
2023-05-22T19:48:04.868Z,101449.16
2023-05-22T19:50:32.820Z,101451.63
2023-05-22T19:53:06.963Z,101446.59
2023-05-22T19:55:33.980Z,101454.69
2023-05-22T19:58:07.706Z,101461.84
2023-05-22T20:00:36.044Z,101468.81
2023-05-22T20:03:09.866Z,101471.97
2023-05-22T20:05:43.266Z,101470.00
2023-05-22T20:08:17.796Z,101462.97
2023-05-22T20:10:44.947Z,101470.50
2023-05-22T20:13:18.855Z,101468.28
2023-05-22T20:15:47.919Z,101469.72
2023-05-22T20:18:15.122Z,101479.94
2023-05-22T20:20:48.787Z,101482.53
2023-05-22T20:23:15.952Z,101459.75
2023-05-22T20:25:49.847Z,101491.19
2023-05-22T20:28:16.894Z,101479.84
2023-05-22T20:30:50.859Z,101485.53
2023-05-22T20:33:23.988Z,101486.81
2023-05-22T20:35:58.870Z,101486.22
2023-05-22T20:38:26.274Z,101483.13
2023-05-22T20:41:00.925Z,101488.22
2023-05-22T20:43:30.443Z,101493.50
2023-05-22T20:46:04.781Z,101496.75
2023-05-22T20:48:34.445Z,101494.34
2023-05-22T20:51:07.810Z,101504.66
2023-05-22T20:53:40.823Z,101505.41
2023-05-22T20:56:14.735Z,101505.41
2023-05-22T20:58:47.708Z,101508.38
2023-05-22T21:01:14.660Z,101501.75
2023-05-22T21:03:47.752Z,101500.03
2023-05-22T21:06:14.692Z,101506.53
2023-05-22T21:08:47.815Z,101500.72
2023-05-22T21:11:14.990Z,101502.72
2023-05-22T21:13:48.862Z,101512.78
2023-05-22T21:16:15.791Z,101514.22
2023-05-22T21:18:49.807Z,101512.34
2023-05-22T21:21:26.764Z,101520.00
2023-05-22T21:23:59.880Z,101514.47
2023-05-22T21:26:27.750Z,101509.09
2023-05-22T21:28:54.965Z,101524.94
2023-05-22T21:31:28.923Z,101520.97
2023-05-22T21:34:02.728Z,101517.16
2023-05-22T21:36:35.825Z,101521.13
2023-05-22T21:39:03.957Z,101520.41
2023-05-22T21:41:40.866Z,101524.75
2023-05-22T21:44:16.904Z,101512.88
2023-05-22T21:46:49.859Z,101524.72
2023-05-22T21:49:22.803Z,101505.59
2023-05-22T21:51:55.902Z,101516.88
2023-05-22T21:54:22.928Z,101523.09
2023-05-22T21:56:56.022Z,101529.34
2023-05-22T21:59:23.147Z,101522.25
2023-05-22T22:01:50.274Z,101510.44
2023-05-22T22:04:26.942Z,101522.63
2023-05-22T22:07:04.292Z,101515.81
2023-05-22T22:09:37.907Z,101508.03
2023-05-22T22:12:05.149Z,101519.44
2023-05-22T22:14:38.973Z,101518.03
2023-05-22T22:17:06.187Z,101524.56
2023-05-22T22:19:43.859Z,101524.44
2023-05-22T22:22:15.318Z,101503.19
2023-05-22T22:24:48.956Z,101524.00
2023-05-22T22:27:15.959Z,101513.91
2023-05-22T22:29:53.882Z,101523.66
2023-05-22T22:32:27.146Z,101526.34
2023-05-22T22:35:07.901Z,101495.63
2023-05-22T22:37:35.052Z,101518.28
2023-05-22T22:40:10.816Z,101523.81
2023-05-22T22:42:40.866Z,101512.03
2023-05-22T22:45:17.924Z,101529.44
2023-05-22T22:47:46.060Z,101499.94
2023-05-22T22:50:20.228Z,101495.56
2023-05-22T22:52:49.425Z,101529.84
2023-05-22T22:55:23.145Z,101503.81
2023-05-22T22:57:50.760Z,101506.03
2023-05-22T23:00:27.137Z,101485.34
2023-05-22T23:03:00.929Z,101506.50
2023-05-22T23:05:28.150Z,101508.19
2023-05-22T23:08:08.872Z,101487.66
2023-05-22T23:10:36.163Z,101500.22
2023-05-22T23:13:13.133Z,101511.28
2023-05-22T23:15:43.358Z,101508.72
2023-05-22T23:18:18.039Z,101522.84
2023-05-22T23:20:45.272Z,101540.13
2023-05-22T23:23:18.856Z,101527.69
2023-05-22T23:25:46.150Z,101508.84
2023-05-22T23:28:21.878Z,101512.53
2023-05-22T23:30:49.018Z,101528.44
2023-05-22T23:33:28.912Z,101493.31
2023-05-22T23:36:03.224Z,101508.59
2023-05-22T23:38:36.931Z,101508.00
2023-05-22T23:41:10.947Z,101487.59
2023-05-22T23:43:38.261Z,101491.59
2023-05-22T23:46:15.543Z,101507.16
2023-05-22T23:48:43.036Z,101507.69
2023-05-22T23:51:21.964Z,101495.06
2023-05-22T23:53:48.893Z,101505.56
2023-05-22T23:56:37.977Z,101520.13
2023-05-22T23:59:08.742Z,101507.38
